createdAt,value
2017-09-30T00:02:00.150Z,12.35
2017-09-30T00:04:27.677Z,12.30
2017-09-30T00:06:55.198Z,12.33
2017-09-30T00:09:22.700Z,12.55
2017-09-30T00:11:50.223Z,12.35
2017-09-30T00:14:17.731Z,12.28
2017-09-30T00:16:45.322Z,12.12
2017-09-30T00:19:12.867Z,12.07
2017-09-30T00:21:40.397Z,11.96
2017-09-30T00:24:07.911Z,12.03
2017-09-30T00:26:35.455Z,12.14
2017-09-30T00:29:03.044Z,12.17
2017-09-30T00:31:30.595Z,12.10
2017-09-30T00:33:58.108Z,12.15
2017-09-30T00:36:25.651Z,12.00
2017-09-30T00:38:53.166Z,11.94
2017-09-30T00:41:20.683Z,11.75
2017-09-30T00:43:48.195Z,11.70
2017-09-30T00:46:15.715Z,11.68
2017-09-30T00:48:43.259Z,11.83
2017-09-30T00:51:10.795Z,11.85
2017-09-30T00:53:38.298Z,11.82
2017-09-30T00:56:05.824Z,11.86
2017-09-30T00:58:33.351Z,11.72
2017-09-30T01:01:00.883Z,11.75
2017-09-30T01:03:28.405Z,11.78
2017-09-30T01:05:55.943Z,11.76
2017-09-30T01:08:23.466Z,11.76
2017-09-30T01:10:51.028Z,11.71
2017-09-30T01:13:18.551Z,11.69
2017-09-30T01:15:46.083Z,11.69
2017-09-30T01:18:13.599Z,11.73
2017-09-30T01:20:41.127Z,12.00
2017-09-30T01:23:08.629Z,12.30
2017-09-30T01:25:36.158Z,12.33
2017-09-30T01:28:03.685Z,12.39
2017-09-30T01:30:31.206Z,12.36
2017-09-30T01:32:58.721Z,12.35
2017-09-30T01:35:26.264Z,12.18
2017-09-30T01:37:53.784Z,12.01
2017-09-30T01:40:21.319Z,12.00
2017-09-30T01:42:48.854Z,12.21
2017-09-30T01:45:16.381Z,12.29
2017-09-30T01:47:43.908Z,12.43
2017-09-30T01:50:11.448Z,12.61
2017-09-30T01:52:39.017Z,12.92
2017-09-30T01:55:06.539Z,12.47
2017-09-30T01:57:34.055Z,12.44
2017-09-30T02:00:01.567Z,12.37
2017-09-30T02:02:29.149Z,12.17
2017-09-30T02:04:56.654Z,12.41
2017-09-30T02:07:24.182Z,12.53
2017-09-30T02:09:51.703Z,12.39
2017-09-30T02:12:19.225Z,12.25
2017-09-30T02:14:46.845Z,12.09
2017-09-30T02:17:14.476Z,12.26
2017-09-30T02:19:41.997Z,12.42
2017-09-30T02:22:09.523Z,12.21
2017-09-30T02:24:37.061Z,12.21
2017-09-30T02:27:04.593Z,12.22
2017-09-30T02:29:32.110Z,12.07
2017-09-30T02:31:59.625Z,12.00
2017-09-30T02:34:27.149Z,12.02
2017-09-30T02:36:54.684Z,11.93
2017-09-30T02:39:22.198Z,12.14
2017-09-30T02:41:49.722Z,12.15
2017-09-30T02:44:17.240Z,11.96
2017-09-30T02:46:44.757Z,12.08
2017-09-30T02:49:12.272Z,11.96
2017-09-30T02:51:39.810Z,11.86
2017-09-30T02:54:07.330Z,11.80
2017-09-30T02:56:34.861Z,11.97
2017-09-30T02:59:02.397Z,12.25
2017-09-30T03:01:29.911Z,11.95
2017-09-30T03:03:57.420Z,11.71
2017-09-30T03:06:24.947Z,11.77
2017-09-30T03:08:52.486Z,11.75
2017-09-30T03:11:19.995Z,11.88
2017-09-30T03:13:47.516Z,12.09
2017-09-30T03:16:15.038Z,12.13
2017-09-30T03:18:42.580Z,11.86
2017-09-30T03:21:10.112Z,11.69
2017-09-30T03:23:37.649Z,11.55
2017-09-30T03:26:05.174Z,11.55
2017-09-30T03:28:32.707Z,11.58
2017-09-30T03:31:00.220Z,11.83
2017-09-30T03:33:27.755Z,11.90
2017-09-30T03:35:55.559Z,12.14
2017-09-30T03:38:23.074Z,12.11
2017-09-30T03:40:50.592Z,12.05
2017-09-30T03:43:18.101Z,12.08
2017-09-30T03:45:45.615Z,11.88
2017-09-30T03:48:13.131Z,11.76
2017-09-30T03:50:40.633Z,11.74
2017-09-30T03:53:08.164Z,11.66
2017-09-30T03:55:35.685Z,11.58
2017-09-30T03:58:03.216Z,11.55
2017-09-30T04:00:30.740Z,11.56
2017-09-30T04:02:58.276Z,11.66
2017-09-30T04:05:25.791Z,11.67
2017-09-30T04:07:53.324Z,11.71
2017-09-30T04:10:20.839Z,11.66
2017-09-30T04:12:48.367Z,11.94
2017-09-30T04:15:15.890Z,11.88
2017-09-30T04:17:43.404Z,12.08
2017-09-30T04:20:17.355Z,12.07
2017-09-30T04:22:44.890Z,11.92
2017-09-30T04:25:12.414Z,11.78
2017-09-30T04:27:39.974Z,12.19
2017-09-30T04:30:07.498Z,12.41
2017-09-30T04:32:35.040Z,12.34
2017-09-30T04:35:02.557Z,12.22
2017-09-30T04:37:30.082Z,12.17
2017-09-30T04:39:57.599Z,11.95
2017-09-30T04:42:25.105Z,11.88
2017-09-30T04:44:52.638Z,12.29
2017-09-30T04:47:20.153Z,12.36
2017-09-30T04:49:47.699Z,12.34
2017-09-30T04:52:15.225Z,12.14
2017-09-30T04:54:42.741Z,11.86
2017-09-30T04:57:10.254Z,12.10
2017-09-30T04:59:37.769Z,12.20
2017-09-30T05:02:05.307Z,12.23
2017-09-30T05:04:32.846Z,12.04
2017-09-30T05:07:00.374Z,11.85
2017-09-30T05:09:27.895Z,11.73
2017-09-30T05:11:55.406Z,11.72
2017-09-30T05:14:22.910Z,11.62
2017-09-30T05:16:50.441Z,11.46
2017-09-30T05:19:17.978Z,11.37
2017-09-30T05:21:45.510Z,11.56
2017-09-30T05:24:13.019Z,11.68
2017-09-30T05:26:41.508Z,11.97
2017-09-30T05:29:09.026Z,12.22
2017-09-30T05:31:36.634Z,12.18
2017-09-30T05:34:04.162Z,12.13
2017-09-30T05:36:31.683Z,11.88
2017-09-30T05:38:59.183Z,12.06
2017-09-30T05:41:26.697Z,12.17
2017-09-30T05:43:54.223Z,12.02
2017-09-30T05:46:21.757Z,11.95
2017-09-30T05:48:49.289Z,12.30
2017-09-30T05:51:16.816Z,12.48
2017-09-30T05:53:44.343Z,12.47
2017-09-30T05:56:11.965Z,12.37
2017-09-30T05:58:39.506Z,12.45
2017-09-30T06:01:07.032Z,12.42
2017-09-30T06:03:34.565Z,12.59
2017-09-30T06:06:02.078Z,12.63
2017-09-30T06:08:29.616Z,12.80
2017-09-30T06:10:57.163Z,13.00
2017-09-30T06:13:24.690Z,13.05
2017-09-30T06:15:52.203Z,13.22
2017-09-30T06:18:19.734Z,13.05
2017-09-30T06:20:47.266Z,12.78
2017-09-30T06:23:14.781Z,13.02
2017-09-30T06:25:42.306Z,13.05
2017-09-30T06:28:09.831Z,13.28
2017-09-30T06:30:37.365Z,13.22
2017-09-30T06:33:04.870Z,13.20
2017-09-30T06:35:33.912Z,13.91
2017-09-30T06:38:01.446Z,14.05
2017-09-30T06:40:29.038Z,14.00
2017-09-30T06:42:56.713Z,14.09
2017-09-30T06:45:24.244Z,14.17
2017-09-30T06:47:51.765Z,14.09
2017-09-30T06:50:19.291Z,14.08
2017-09-30T06:52:46.810Z,14.20
2017-09-30T06:55:14.320Z,13.78
2017-09-30T06:57:41.882Z,14.48
2017-09-30T07:00:09.390Z,14.60
2017-09-30T07:02:36.915Z,14.78
2017-09-30T07:05:04.434Z,14.90
2017-09-30T07:07:31.954Z,14.81
2017-09-30T07:09:59.492Z,15.10
2017-09-30T07:12:27.019Z,15.51
2017-09-30T07:14:54.550Z,15.06
2017-09-30T07:17:22.057Z,15.07
2017-09-30T07:19:49.596Z,15.51
2017-09-30T07:22:17.131Z,15.38
2017-09-30T07:24:44.659Z,15.24
2017-09-30T07:27:12.175Z,15.36
2017-09-30T07:29:39.691Z,15.19
2017-09-30T07:32:07.240Z,15.22
2017-09-30T07:34:34.762Z,15.30
2017-09-30T07:37:02.308Z,15.07
2017-09-30T07:39:29.808Z,14.70
2017-09-30T07:41:57.337Z,15.47
2017-09-30T07:44:24.856Z,16.53
2017-09-30T07:46:52.401Z,17.33
2017-09-30T07:49:19.911Z,17.55
2017-09-30T07:51:47.418Z,17.70
2017-09-30T07:54:14.946Z,18.19
2017-09-30T07:56:42.500Z,18.78
2017-09-30T07:59:10.025Z,19.44
2017-09-30T08:01:37.528Z,19.98
2017-09-30T08:04:05.088Z,19.76
2017-09-30T08:06:32.612Z,19.41
2017-09-30T08:09:00.178Z,21.67
2017-09-30T08:11:27.688Z,22.56
2017-09-30T08:13:55.213Z,22.39
2017-09-30T08:16:22.727Z,20.66
2017-09-30T08:18:50.265Z,20.89
2017-09-30T08:21:17.816Z,21.43
2017-09-30T08:23:45.336Z,21.25
2017-09-30T08:26:12.867Z,21.53
2017-09-30T08:28:40.385Z,21.58
2017-09-30T08:31:07.912Z,22.76
2017-09-30T08:33:35.434Z,22.38
2017-09-30T08:36:03.003Z,23.32
2017-09-30T08:38:30.527Z,24.12
2017-09-30T08:40:58.067Z,23.65
2017-09-30T08:43:25.592Z,24.80
2017-09-30T08:45:53.103Z,28.26
2017-09-30T08:48:20.640Z,30.17
2017-09-30T08:50:48.147Z,27.97
2017-09-30T08:53:15.669Z,26.30
2017-09-30T08:55:43.206Z,24.34
2017-09-30T08:58:10.732Z,26.00
2017-09-30T09:00:38.242Z,28.71
2017-09-30T09:03:05.758Z,30.52
2017-09-30T09:05:33.284Z,30.68
2017-09-30T09:08:00.833Z,29.44
2017-09-30T09:10:28.457Z,29.68
2017-09-30T09:12:55.994Z,27.88
2017-09-30T09:15:23.509Z,28.13
2017-09-30T09:17:51.025Z,25.24
2017-09-30T09:20:18.536Z,24.25
2017-09-30T09:22:46.071Z,23.19
2017-09-30T09:25:13.580Z,23.69
2017-09-30T09:27:41.138Z,23.54
2017-09-30T09:30:08.651Z,23.18
2017-09-30T09:32:36.171Z,23.14
2017-09-30T09:35:03.698Z,22.76
2017-09-30T09:37:31.212Z,23.23
2017-09-30T09:39:58.728Z,24.35
2017-09-30T09:42:26.232Z,24.01
2017-09-30T09:44:53.772Z,24.39
2017-09-30T09:47:21.283Z,24.01
2017-09-30T09:49:48.827Z,23.85
2017-09-30T09:52:16.323Z,23.63
2017-09-30T09:54:43.831Z,23.31
2017-09-30T09:57:11.347Z,25.62
2017-09-30T09:59:38.863Z,29.53
2017-09-30T10:02:06.503Z,29.14
2017-09-30T10:04:34.018Z,30.29
2017-09-30T10:07:01.534Z,29.18
2017-09-30T10:09:29.044Z,32.70
2017-09-30T10:11:56.562Z,34.01
2017-09-30T10:14:24.207Z,34.57
2017-09-30T10:16:51.717Z,32.49
2017-09-30T10:19:19.255Z,31.72
2017-09-30T10:21:46.794Z,32.83
2017-09-30T10:24:14.300Z,36.54
2017-09-30T10:26:41.816Z,36.33
2017-09-30T10:29:09.322Z,36.63
2017-09-30T10:31:36.841Z,36.83
2017-09-30T10:34:04.359Z,34.62
2017-09-30T10:36:31.873Z,34.64
2017-09-30T10:38:59.379Z,35.54
2017-09-30T10:41:26.892Z,33.53
2017-09-30T10:43:54.420Z,34.84
2017-09-30T10:46:21.935Z,36.68
2017-09-30T10:48:49.465Z,33.37
2017-09-30T10:51:16.984Z,34.62
2017-09-30T10:53:44.488Z,34.67
2017-09-30T10:56:11.999Z,34.31
2017-09-30T10:58:39.506Z,32.97
2017-09-30T11:01:07.091Z,33.71
2017-09-30T11:03:34.605Z,35.32
2017-09-30T11:06:02.128Z,35.36
2017-09-30T11:08:29.668Z,35.33
2017-09-30T11:10:57.199Z,35.78
2017-09-30T11:13:24.708Z,33.34
2017-09-30T11:15:52.227Z,31.44
2017-09-30T11:18:19.751Z,31.19
2017-09-30T11:20:47.256Z,29.93
2017-09-30T11:23:14.748Z,27.69
2017-09-30T11:25:42.249Z,28.70
2017-09-30T11:28:09.760Z,28.15
2017-09-30T11:30:37.279Z,30.50
2017-09-30T11:33:04.840Z,29.72
2017-09-30T11:35:32.364Z,27.89
2017-09-30T11:37:59.878Z,30.30
2017-09-30T11:40:27.417Z,32.19
2017-09-30T11:42:54.924Z,33.13
2017-09-30T11:45:22.435Z,35.61
2017-09-30T11:47:49.957Z,35.79
2017-09-30T11:50:17.495Z,36.98
2017-09-30T11:52:45.007Z,33.47
2017-09-30T11:55:12.529Z,33.48
2017-09-30T11:57:40.056Z,35.38
2017-09-30T12:00:07.572Z,34.83
2017-09-30T12:02:35.074Z,33.80
2017-09-30T12:05:02.610Z,35.00
2017-09-30T12:07:30.137Z,33.52
2017-09-30T12:09:57.663Z,35.04
2017-09-30T12:12:25.207Z,35.22
2017-09-30T12:14:52.730Z,35.27
2017-09-30T12:17:20.254Z,32.55
2017-09-30T12:19:47.776Z,35.23
2017-09-30T12:22:15.306Z,36.86
2017-09-30T12:24:42.819Z,36.81
2017-09-30T12:27:10.353Z,33.57
2017-09-30T12:29:37.877Z,34.40
2017-09-30T12:32:05.407Z,34.12
2017-09-30T12:34:32.930Z,35.52
2017-09-30T12:37:00.460Z,32.38
2017-09-30T12:39:27.984Z,31.61
2017-09-30T12:41:55.514Z,32.38
2017-09-30T12:44:23.023Z,32.84
2017-09-30T12:46:50.586Z,31.86
2017-09-30T12:49:18.112Z,31.44
2017-09-30T12:51:45.639Z,33.22
2017-09-30T12:54:13.154Z,31.49
2017-09-30T12:56:40.784Z,32.04
2017-09-30T12:59:08.305Z,32.59
2017-09-30T13:01:35.834Z,34.45
2017-09-30T13:04:03.399Z,34.45
2017-09-30T13:06:30.902Z,32.07
2017-09-30T13:08:58.410Z,34.23
2017-09-30T13:11:25.910Z,33.16
2017-09-30T13:13:53.410Z,31.63
2017-09-30T13:16:20.986Z,30.78
2017-09-30T13:18:48.515Z,30.82
2017-09-30T13:21:16.046Z,30.91
2017-09-30T13:23:43.614Z,28.59
2017-09-30T13:26:11.135Z,27.35
2017-09-30T13:28:38.699Z,28.58
2017-09-30T13:31:06.205Z,29.01
2017-09-30T13:33:33.717Z,29.24
2017-09-30T13:36:01.256Z,29.84
2017-09-30T13:38:28.771Z,28.58
2017-09-30T13:40:56.279Z,29.76
2017-09-30T13:43:23.808Z,29.40
2017-09-30T13:45:51.308Z,30.58
2017-09-30T13:48:18.904Z,29.57
2017-09-30T13:50:46.420Z,29.07
2017-09-30T13:53:14.159Z,29.65
2017-09-30T13:55:41.666Z,29.07
2017-09-30T13:58:09.201Z,27.84
2017-09-30T14:00:36.749Z,25.63
2017-09-30T14:03:04.288Z,25.99
2017-09-30T14:05:31.852Z,25.92
2017-09-30T14:07:59.379Z,25.74
2017-09-30T14:10:26.891Z,25.35
2017-09-30T14:12:54.395Z,25.41
2017-09-30T14:15:21.928Z,25.23
2017-09-30T14:17:49.448Z,25.09
2017-09-30T14:20:16.997Z,25.09
2017-09-30T14:22:44.531Z,25.20
2017-09-30T14:25:12.078Z,25.17
2017-09-30T14:27:39.615Z,24.97
2017-09-30T14:30:07.120Z,24.56
2017-09-30T14:32:34.647Z,24.30
2017-09-30T14:35:02.176Z,24.16
2017-09-30T14:37:29.704Z,24.24
2017-09-30T14:39:57.211Z,24.06
2017-09-30T14:42:24.733Z,23.87
2017-09-30T14:44:52.280Z,24.42
2017-09-30T14:47:19.898Z,23.64
2017-09-30T14:49:47.504Z,23.84
2017-09-30T14:52:15.031Z,24.00
2017-09-30T14:54:42.560Z,23.60
2017-09-30T14:57:10.082Z,23.24
2017-09-30T14:59:37.612Z,23.12
2017-09-30T15:02:05.124Z,22.90
2017-09-30T15:04:32.696Z,22.76
2017-09-30T15:07:00.226Z,22.09
2017-09-30T15:09:27.727Z,22.20
2017-09-30T15:11:55.250Z,22.06
2017-09-30T15:14:22.783Z,21.76
2017-09-30T15:16:50.287Z,21.69
2017-09-30T15:19:17.830Z,21.32
2017-09-30T15:21:45.350Z,20.83
2017-09-30T15:24:12.895Z,21.01
2017-09-30T15:26:40.416Z,20.39
2017-09-30T15:29:07.936Z,19.89
2017-09-30T15:31:35.463Z,18.98
2017-09-30T15:34:02.995Z,18.53
2017-09-30T15:36:30.651Z,18.54
2017-09-30T15:38:58.179Z,18.36
2017-09-30T15:41:25.932Z,18.56
2017-09-30T15:43:53.478Z,18.62
2017-09-30T15:46:20.999Z,18.35
2017-09-30T15:48:48.519Z,18.38
2017-09-30T15:51:16.054Z,18.15
2017-09-30T15:53:43.564Z,18.21
2017-09-30T15:56:11.089Z,18.16
2017-09-30T15:58:38.612Z,17.97
2017-09-30T16:01:06.196Z,17.92
2017-09-30T16:03:33.846Z,17.74
2017-09-30T16:06:01.471Z,17.74
2017-09-30T16:08:28.990Z,17.62
2017-09-30T16:10:56.556Z,17.60
2017-09-30T16:13:24.197Z,17.68
2017-09-30T16:15:51.709Z,17.79
2017-09-30T16:18:19.256Z,17.75
2017-09-30T16:20:46.815Z,17.44
2017-09-30T16:23:14.341Z,17.23
2017-09-30T16:25:41.867Z,16.85
2017-09-30T16:28:09.394Z,16.74
2017-09-30T16:30:36.907Z,16.46
2017-09-30T16:33:04.415Z,16.11
2017-09-30T16:35:31.947Z,15.99
2017-09-30T16:37:59.492Z,15.78
2017-09-30T16:40:27.004Z,15.73
2017-09-30T16:42:54.515Z,15.72
2017-09-30T16:45:22.023Z,15.50
2017-09-30T16:47:49.553Z,15.56
2017-09-30T16:50:17.065Z,15.65
2017-09-30T16:52:44.601Z,15.62
2017-09-30T16:55:12.117Z,15.66
2017-09-30T16:57:39.611Z,15.70
2017-09-30T17:00:07.118Z,15.42
2017-09-30T17:02:34.628Z,15.42
2017-09-30T17:05:02.137Z,15.47
2017-09-30T17:07:29.668Z,14.99
2017-09-30T17:09:57.202Z,15.00
2017-09-30T17:12:24.727Z,14.95
2017-09-30T17:14:52.255Z,15.10
2017-09-30T17:17:19.767Z,15.08
2017-09-30T17:19:47.325Z,15.06
2017-09-30T17:22:14.840Z,15.42
2017-09-30T17:24:42.358Z,15.53
2017-09-30T17:27:09.886Z,15.41
2017-09-30T17:29:37.436Z,14.65
2017-09-30T17:32:04.935Z,14.65
2017-09-30T17:34:32.446Z,14.78
2017-09-30T17:37:00.079Z,14.90
2017-09-30T17:39:27.585Z,15.55
2017-09-30T17:41:55.110Z,14.98
2017-09-30T17:44:22.744Z,14.85
2017-09-30T17:46:50.283Z,14.62
2017-09-30T17:49:17.800Z,14.27
2017-09-30T17:51:45.291Z,14.09
2017-09-30T17:54:12.880Z,14.19
2017-09-30T17:56:40.416Z,14.04
2017-09-30T17:59:07.928Z,14.05
2017-09-30T18:01:35.440Z,14.17
2017-09-30T18:04:03.055Z,14.12
2017-09-30T18:06:30.586Z,14.30
2017-09-30T18:08:58.108Z,14.21
2017-09-30T18:11:25.617Z,13.98
2017-09-30T18:13:53.139Z,13.94
2017-09-30T18:16:20.663Z,13.76
2017-09-30T18:18:48.166Z,13.67
2017-09-30T18:21:15.664Z,13.69
2017-09-30T18:23:43.192Z,14.02
2017-09-30T18:26:11.611Z,14.12
2017-09-30T18:28:39.188Z,14.13
2017-09-30T18:31:06.776Z,14.02
2017-09-30T18:33:34.350Z,13.86
2017-09-30T18:36:01.892Z,13.52
2017-09-30T18:38:29.401Z,13.50
2017-09-30T18:40:56.992Z,13.52
2017-09-30T18:43:25.208Z,13.35
2017-09-30T18:45:52.842Z,13.22
2017-09-30T18:48:20.502Z,13.36
2017-09-30T18:50:49.029Z,13.24
2017-09-30T18:53:16.707Z,13.31
2017-09-30T18:55:44.772Z,13.54
2017-09-30T18:58:12.793Z,13.45
2017-09-30T19:00:40.659Z,13.33
2017-09-30T19:03:08.315Z,13.28
2017-09-30T19:05:35.988Z,13.37
2017-09-30T19:08:03.537Z,13.51
2017-09-30T19:10:31.085Z,13.26
2017-09-30T19:12:58.631Z,13.41
2017-09-30T19:15:26.142Z,13.51
2017-09-30T19:17:53.698Z,13.29
2017-09-30T19:20:21.223Z,13.36
2017-09-30T19:22:48.782Z,13.25
2017-09-30T19:25:16.310Z,13.29
2017-09-30T19:27:43.825Z,13.32
2017-09-30T19:30:11.339Z,13.38
2017-09-30T19:32:38.865Z,13.57
2017-09-30T19:35:06.385Z,13.84
2017-09-30T19:37:33.886Z,13.80
2017-09-30T19:40:01.419Z,13.58
2017-09-30T19:42:28.915Z,13.56
2017-09-30T19:44:56.459Z,13.72
2017-09-30T19:47:24.017Z,13.60
2017-09-30T19:49:51.550Z,13.45
2017-09-30T19:52:21.150Z,13.32
2017-09-30T19:54:48.683Z,13.60
2017-09-30T19:57:16.207Z,13.66
2017-09-30T19:59:43.719Z,13.48
2017-09-30T20:02:11.261Z,13.35
2017-09-30T20:04:38.784Z,13.44
2017-09-30T20:07:06.295Z,13.32
2017-09-30T20:09:33.839Z,13.44
2017-09-30T20:12:01.376Z,13.45
2017-09-30T20:14:28.951Z,13.69
2017-09-30T20:16:56.493Z,13.57
2017-09-30T20:19:24.232Z,13.63
2017-09-30T20:21:51.789Z,13.69
2017-09-30T20:24:19.321Z,13.70
2017-09-30T20:26:47.118Z,13.64
2017-09-30T20:29:14.660Z,13.68
2017-09-30T20:31:42.282Z,13.43
2017-09-30T20:34:09.817Z,13.36
2017-09-30T20:36:37.392Z,13.42
2017-09-30T20:39:04.943Z,13.50
2017-09-30T20:41:32.476Z,13.39
2017-09-30T20:44:00.128Z,13.35
2017-09-30T20:46:27.682Z,13.27
2017-09-30T20:48:55.204Z,13.41
2017-09-30T20:51:22.723Z,13.27
2017-09-30T20:53:50.271Z,13.48
2017-09-30T20:56:17.833Z,13.36
2017-09-30T20:58:45.411Z,13.23
2017-09-30T21:01:12.923Z,13.42
2017-09-30T21:03:40.485Z,13.59
2017-09-30T21:06:08.059Z,13.44
2017-09-30T21:08:35.569Z,13.56
2017-09-30T21:11:03.102Z,13.23
2017-09-30T21:13:30.613Z,13.22
2017-09-30T21:15:58.119Z,13.01
2017-09-30T21:18:25.697Z,12.89
2017-09-30T21:20:53.347Z,12.91
2017-09-30T21:23:20.880Z,13.03
2017-09-30T21:25:48.379Z,12.93
2017-09-30T21:28:15.899Z,13.01
2017-09-30T21:30:43.416Z,12.73
2017-09-30T21:33:10.924Z,12.84
2017-09-30T21:35:38.449Z,13.01
2017-09-30T21:38:05.973Z,12.73
2017-09-30T21:40:33.663Z,12.62
2017-09-30T21:43:01.223Z,12.70
2017-09-30T21:45:28.761Z,12.64
2017-09-30T21:47:56.278Z,12.86
2017-09-30T21:50:23.787Z,12.70
2017-09-30T21:52:51.305Z,12.68
2017-09-30T21:55:18.849Z,12.83
2017-09-30T21:57:46.355Z,12.75
2017-09-30T22:00:13.880Z,12.59
2017-09-30T22:02:41.431Z,12.52
2017-09-30T22:05:08.948Z,12.95
2017-09-30T22:07:36.467Z,12.74
2017-09-30T22:10:04.013Z,12.57
2017-09-30T22:12:31.545Z,12.58
2017-09-30T22:14:59.299Z,12.86
2017-09-30T22:17:26.811Z,12.73
2017-09-30T22:19:54.339Z,12.70
2017-09-30T22:22:21.880Z,12.73
2017-09-30T22:24:49.371Z,12.55
2017-09-30T22:27:16.897Z,12.62
2017-09-30T22:29:44.420Z,12.67
2017-09-30T22:32:11.931Z,12.67
2017-09-30T22:34:39.467Z,12.72
2017-09-30T22:37:06.966Z,12.70
2017-09-30T22:39:35.399Z,12.55
2017-09-30T22:42:02.916Z,12.68
2017-09-30T22:44:30.462Z,12.65
2017-09-30T22:46:57.984Z,12.79
2017-09-30T22:49:25.500Z,12.71
2017-09-30T22:51:53.128Z,12.77
2017-09-30T22:54:20.640Z,12.97
2017-09-30T22:56:48.160Z,13.04
2017-09-30T22:59:15.672Z,12.99
2017-09-30T23:01:43.175Z,13.07
2017-09-30T23:04:10.684Z,12.82
2017-09-30T23:06:38.194Z,12.49
2017-09-30T23:09:10.267Z,12.45
2017-09-30T23:11:37.791Z,12.68
2017-09-30T23:14:05.327Z,12.89
2017-09-30T23:16:32.849Z,12.80
2017-09-30T23:19:00.391Z,12.65
2017-09-30T23:21:27.915Z,12.54
2017-09-30T23:23:55.466Z,12.53
2017-09-30T23:26:22.992Z,12.53
2017-09-30T23:28:50.512Z,12.44
2017-09-30T23:31:18.017Z,12.62
2017-09-30T23:33:45.551Z,12.56
2017-09-30T23:36:13.054Z,12.52
2017-09-30T23:38:40.572Z,12.68
2017-09-30T23:41:08.494Z,12.58
2017-09-30T23:43:36.015Z,12.56
2017-09-30T23:46:03.508Z,12.72
2017-09-30T23:48:31.206Z,12.48
2017-09-30T23:50:58.730Z,12.31
2017-09-30T23:53:26.230Z,12.38
2017-09-30T23:55:53.727Z,12.42
2017-09-30T23:58:21.249Z,12.44
